createdAt,value
2023-03-23T15:58:43.148Z,99515.59
2023-03-23T16:01:21.888Z,99510.34
2023-03-23T16:03:55.777Z,99518.69
2023-03-23T16:06:25.898Z,99520.38
2023-03-23T16:08:55.100Z,99519.91
2023-03-23T16:11:26.842Z,99529.91
2023-03-23T16:13:53.747Z,99520.38
2023-03-23T16:16:27.346Z,99529.75
2023-03-23T16:18:54.752Z,99525.50
2023-03-23T16:21:22.531Z,99529.22
2023-03-23T16:23:49.401Z,99529.63
2023-03-23T16:26:16.237Z,99532.31
2023-03-23T16:28:43.761Z,99533.22
2023-03-23T16:31:11.238Z,99535.22
2023-03-23T16:33:38.093Z,99539.19
2023-03-23T16:36:05.307Z,99543.44
2023-03-23T16:38:32.392Z,99541.00
2023-03-23T16:40:59.515Z,99533.22
2023-03-23T16:43:26.366Z,99533.66
2023-03-23T16:45:56.405Z,99532.03
2023-03-23T16:48:23.873Z,99527.94
2023-03-23T16:50:51.676Z,99522.81
2023-03-23T16:53:19.120Z,99532.78
2023-03-23T16:55:48.471Z,99529.97
2023-03-23T16:58:17.766Z,99532.78
2023-03-23T17:00:49.425Z,99528.69
2023-03-23T17:03:18.175Z,99528.34
2023-03-23T17:05:46.252Z,99525.03
2023-03-23T17:08:13.390Z,99530.63
2023-03-23T17:10:41.339Z,99529.78
2023-03-23T17:13:08.955Z,99530.53
2023-03-23T17:15:44.512Z,99532.47
2023-03-23T17:18:14.255Z,99538.03
2023-03-23T17:20:42.903Z,99541.59
2023-03-23T17:23:09.601Z,99530.47
2023-03-23T17:25:36.557Z,99523.25
2023-03-23T17:28:05.708Z,99520.88
2023-03-23T17:30:34.026Z,99525.66
2023-03-23T17:33:00.872Z,99523.53
2023-03-23T17:35:27.912Z,99519.16
2023-03-23T17:37:54.813Z,99531.97
2023-03-23T17:40:21.547Z,99524.84
2023-03-23T17:42:48.174Z,99530.38
2023-03-23T17:45:14.808Z,99529.56
2023-03-23T17:47:41.548Z,99527.59
2023-03-23T17:50:12.288Z,99526.78
2023-03-23T17:52:40.473Z,99527.22
2023-03-23T17:55:08.189Z,99517.66
2023-03-23T17:57:35.471Z,99518.88
2023-03-23T18:00:02.936Z,99512.81
2023-03-23T18:02:33.897Z,99494.88
2023-03-23T18:05:00.919Z,99499.69
2023-03-23T18:07:27.851Z,99500.16
2023-03-23T18:09:59.592Z,99498.53
2023-03-23T18:12:26.661Z,99497.00
2023-03-23T18:14:59.558Z,99490.16
2023-03-23T18:17:27.052Z,99485.78
2023-03-23T18:19:54.408Z,99484.97
2023-03-23T18:22:21.646Z,99482.63
2023-03-23T18:24:48.300Z,99477.81
2023-03-23T18:27:15.143Z,99474.25
2023-03-23T18:29:41.976Z,99461.88
2023-03-23T18:32:09.113Z,99465.88
2023-03-23T18:34:36.894Z,99467.41
2023-03-23T18:37:06.853Z,99471.47
2023-03-23T18:39:34.215Z,99471.00
2023-03-23T18:42:01.633Z,99468.22
2023-03-23T18:44:28.315Z,99468.22
2023-03-23T18:46:55.048Z,99467.47
2023-03-23T18:49:22.059Z,99457.06
2023-03-23T18:51:49.087Z,99453.09
2023-03-23T18:54:17.365Z,99449.53
2023-03-23T18:56:44.122Z,99456.28
2023-03-23T18:59:11.024Z,99448.25
2023-03-23T19:01:37.764Z,99447.56
2023-03-23T19:04:06.454Z,99453.94
2023-03-23T19:06:34.976Z,99453.94
2023-03-23T19:09:02.142Z,99455.53
2023-03-23T19:11:29.229Z,99448.78
2023-03-23T19:14:02.163Z,99440.75
2023-03-23T19:16:32.336Z,99438.38
2023-03-23T19:19:02.035Z,99448.31
2023-03-23T19:21:31.476Z,99439.59
2023-03-23T19:23:59.175Z,99442.78
2023-03-23T19:26:46.494Z,99441.16
2023-03-23T19:29:26.625Z,99446.78
2023-03-23T19:31:55.444Z,99445.97
2023-03-23T19:34:23.016Z,99444.38
2023-03-23T19:36:54.986Z,99433.19
2023-03-23T19:39:26.668Z,99438.38
2023-03-23T19:41:53.471Z,99436.78
2023-03-23T19:44:20.380Z,99422.94
2023-03-23T19:46:48.364Z,99419.28
2023-03-23T19:49:15.202Z,99410.84
2023-03-23T19:51:42.102Z,99413.63
2023-03-23T19:54:09.067Z,99406.88
2023-03-23T19:56:36.227Z,99409.28
2023-03-23T19:59:03.364Z,99403.69
2023-03-23T20:01:30.468Z,99400.50
2023-03-23T20:03:59.964Z,99396.53
2023-03-23T20:06:29.320Z,99398.09
2023-03-23T20:09:00.090Z,99396.53
2023-03-23T20:11:28.627Z,99397.28
2023-03-23T20:13:56.682Z,99401.34
2023-03-23T20:16:24.880Z,99402.47
2023-03-23T20:18:52.901Z,99398.84
2023-03-23T20:21:22.975Z,99395.72
2023-03-23T20:23:52.380Z,99406.53
2023-03-23T20:26:40.263Z,99397.28
2023-03-23T20:29:08.032Z,99398.16
2023-03-23T20:31:37.878Z,99401.38
2023-03-23T20:34:08.639Z,99386.56
2023-03-23T20:36:42.218Z,99396.69
2023-03-23T20:39:21.499Z,99401.38
2023-03-23T20:41:54.454Z,99400.19
2023-03-23T20:44:23.325Z,99402.56
2023-03-23T20:46:51.919Z,99402.56
2023-03-23T20:49:20.928Z,99400.88
2023-03-23T20:51:48.338Z,99400.59
2023-03-23T20:54:16.695Z,99397.84
2023-03-23T20:56:45.268Z,99401.41
2023-03-23T20:59:12.747Z,99398.16
2023-03-23T21:01:40.073Z,99393.38
2023-03-23T21:04:14.894Z,99398.09
2023-03-23T21:06:43.377Z,99391.63
2023-03-23T21:09:10.173Z,99390.03
2023-03-23T21:11:57.223Z,99391.53
2023-03-23T21:14:24.285Z,99398.00
2023-03-23T21:16:51.420Z,99393.44
2023-03-23T21:19:19.579Z,99392.97
2023-03-23T21:21:56.266Z,99385.69
2023-03-23T21:24:29.270Z,99377.59
2023-03-23T21:26:58.934Z,99382.25
2023-03-23T21:29:27.655Z,99382.22
2023-03-23T21:32:07.045Z,99383.72
2023-03-23T21:34:36.066Z,99375.72
2023-03-23T21:37:02.936Z,99378.97
2023-03-23T21:39:29.637Z,99382.09
2023-03-23T21:41:56.412Z,99362.09
2023-03-23T21:44:23.126Z,99370.81
2023-03-23T21:47:04.737Z,99354.00
2023-03-23T21:49:31.718Z,99358.38
2023-03-23T21:51:58.539Z,99338.78
2023-03-23T21:54:30.397Z,99345.91
2023-03-23T21:56:58.867Z,99349.88
2023-03-23T21:59:26.352Z,99346.66
2023-03-23T22:01:53.826Z,99341.84
2023-03-23T22:04:21.054Z,99339.44
2023-03-23T22:06:47.990Z,99325.84
2023-03-23T22:09:15.330Z,99327.06
2023-03-23T22:11:42.227Z,99326.59
2023-03-23T22:14:09.358Z,99327.81
2023-03-23T22:16:36.507Z,99311.81
2023-03-23T22:19:03.673Z,99308.16
2023-03-23T22:21:30.650Z,99311.75
2023-03-23T22:23:59.707Z,99297.75
2023-03-23T22:26:28.097Z,99293.75
2023-03-23T22:28:56.075Z,99292.94
2023-03-23T22:31:26.634Z,99298.09
2023-03-23T22:33:55.461Z,99282.13
2023-03-23T22:36:26.436Z,99280.09
2023-03-23T22:38:55.552Z,99276.06
2023-03-23T22:41:28.209Z,99276.00
2023-03-23T22:43:55.212Z,99262.47
2023-03-23T22:46:22.939Z,99262.38
2023-03-23T22:48:49.944Z,99257.16
2023-03-23T22:51:18.524Z,99242.78
2023-03-23T22:53:46.085Z,99247.13
2023-03-23T22:56:13.520Z,99237.56
2023-03-23T22:58:40.712Z,99229.56
2023-03-23T23:01:11.978Z,99232.72
2023-03-23T23:03:40.167Z,99231.13
2023-03-23T23:06:07.884Z,99223.13
2023-03-23T23:08:34.746Z,99227.09
2023-03-23T23:11:03.661Z,99215.53
2023-03-23T23:13:32.662Z,99219.47
2023-03-23T23:16:02.037Z,99221.84
2023-03-23T23:18:30.833Z,99220.22
2023-03-23T23:20:59.739Z,99216.28
2023-03-23T23:23:27.904Z,99212.69
2023-03-23T23:25:55.204Z,99208.66
2023-03-23T23:28:22.900Z,99203.91
2023-03-23T23:30:50.991Z,99202.28
2023-03-23T23:33:19.007Z,99197.53
2023-03-23T23:35:48.102Z,99199.88
2023-03-23T23:38:16.144Z,99196.66
2023-03-23T23:40:46.086Z,99198.66
2023-03-23T23:43:15.366Z,99187.88
2023-03-23T23:45:42.644Z,99191.84
2023-03-23T23:48:09.676Z,99184.66
2023-03-23T23:50:36.655Z,99182.25
2023-03-23T23:53:04.845Z,99181.44
2023-03-23T23:55:32.277Z,99187.81
2023-03-23T23:57:59.063Z,99184.56
